Terminal Aerodrome Forecast
Issued by NWS Memphis, TN

Home | Current Version | Previous Version | Text Only | Print | Product List | Glossary On
Versions: 1 2 3 4 5 6 7 8 9 10 11 12 13 14 15 16
000
FTUS44 KMEG 312300
TAFJBR
TAF
KJBR 312330Z 0100/0124 VRB02KT P6SM VCSH BKN040 OVC120
     FM010700 02002KT 5SM BR BKN040 OVC100
      TEMPO 0109/0112 3SM BR
     FM011300 05003KT P6SM FEW040 OVC100
     FM011800 11006KT P6SM FEW040 SCT100=

USA.gov is the U.S. government's official web portal to all federal, state and local government web resources and services.